sensor_id;sensor_type;location;lat;lon;timestamp;pressure;altitude;pressure_sealevel;temperature;humidity
51299;BME280;37382;45.192;9.790;2022-10-22T04:14:44;101023.75;;;17.44;100.00
51299;BME280;37382;45.192;9.790;2022-10-22T04:17:14;101019.91;;;17.33;100.00
51299;BME280;37382;45.192;9.790;2022-10-22T04:19:42;101029.72;;;17.41;100.00
51299;BME280;37382;45.192;9.790;2022-10-22T04:22:09;101028.16;;;17.33;100.00
51299;BME280;37382;45.192;9.790;2022-10-22T04:24:37;101029.97;;;17.39;100.00
51299;BME280;37382;45.192;9.790;2022-10-22T04:27:04;101032.75;;;17.51;100.00
51299;BME280;37382;45.192;9.790;2022-10-22T04:29:32;101037.38;;;17.51;100.00
51299;BME280;37382;45.192;9.790;2022-10-22T04:31:59;101034.16;;;17.42;100.00
51299;BME280;37382;45.192;9.790;2022-10-22T04:34:27;101026.63;;;17.49;100.00
51299;BME280;37382;45.192;9.790;2022-10-22T04:36:55;101031.66;;;17.52;100.00
51299;BME280;37382;45.192;9.790;2022-10-22T04:39:22;101033.44;;;17.35;100.00
51299;BME280;37382;45.192;9.790;2022-10-22T04:41:50;101035.34;;;17.34;100.00
51299;BME280;37382;45.192;9.790;2022-10-22T04:44:18;101030.53;;;17.30;100.00
51299;BME280;37382;45.192;9.790;2022-10-22T04:46:45;101040.69;;;17.29;100.00
51299;BME280;37382;45.192;9.790;2022-10-22T04:49:13;101031.31;;;17.49;100.00
51299;BME280;37382;45.192;9.790;2022-10-22T04:51:40;101035.19;;;17.29;100.00
51299;BME280;37382;45.192;9.790;2022-10-22T04:54:07;101032.00;;;17.44;100.00
51299;BME280;37382;45.192;9.790;2022-10-22T04:56:35;101024.81;;;17.31;100.00
51299;BME280;37382;45.192;9.790;2022-10-22T04:59:05;101021.41;;;17.17;100.00
51299;BME280;37382;45.192;9.790;2022-10-22T05:01:36;101022.63;;;17.21;100.00
51299;BME280;37382;45.192;9.790;2022-10-22T05:04:11;101024.00;;;17.42;100.00
51299;BME280;37382;45.192;9.790;2022-10-22T05:06:40;101030.19;;;17.26;100.00
51299;BME280;37382;45.192;9.790;2022-10-22T05:09:12;101033.31;;;17.41;100.00
51299;BME280;37382;45.192;9.790;2022-10-22T05:11:42;101032.69;;;17.28;100.00
51299;BME280;37382;45.192;9.790;2022-10-22T05:14:21;101028.44;;;17.43;100.00
51299;BME280;37382;45.192;9.790;2022-10-22T05:16:49;101039.13;;;17.21;100.00
51299;BME280;37382;45.192;9.790;2022-10-22T05:19:23;101036.88;;;17.30;100.00
51299;BME280;37382;45.192;9.790;2022-10-22T05:21:53;101035.94;;;17.36;100.00
51299;BME280;37382;45.192;9.790;2022-10-22T05:24:20;101032.72;;;17.39;100.00
51299;BME280;37382;45.192;9.790;2022-10-22T05:26:49;101037.00;;;17.35;100.00
51299;BME280;37382;45.192;9.790;2022-10-22T05:29:17;101044.16;;;17.24;100.00
51299;BME280;37382;45.192;9.790;2022-10-22T05:31:45;101046.81;;;17.31;100.00
51299;BME280;37382;45.192;9.790;2022-10-22T05:34:13;101053.09;;;17.20;100.00
51299;BME280;37382;45.192;9.790;2022-10-22T05:36:42;101050.72;;;17.12;100.00
51299;BME280;37382;45.192;9.790;2022-10-22T05:39:09;101046.81;;;17.31;100.00
51299;BME280;37382;45.192;9.790;2022-10-22T05:41:37;101061.00;;;17.28;100.00
51299;BME280;37382;45.192;9.790;2022-10-22T05:44:04;101062.69;;;17.29;100.00
51299;BME280;37382;45.192;9.790;2022-10-22T05:46:35;101070.66;;;17.19;100.00
51299;BME280;37382;45.192;9.790;2022-10-22T05:49:04;101069.47;;;17.15;100.00
51299;BME280;37382;45.192;9.790;2022-10-22T05:51:34;101068.31;;;17.22;100.00
51299;BME280;37382;45.192;9.790;2022-10-22T05:54:04;101076.03;;;17.14;100.00
51299;BME280;37382;45.192;9.790;2022-10-22T05:56:33;101084.56;;;17.24;100.00
51299;BME280;37382;45.192;9.790;2022-10-22T05:59:00;101080.13;;;17.23;100.00
51299;BME280;37382;45.192;9.790;2022-10-22T06:01:31;101079.50;;;17.51;100.00
51299;BME280;37382;45.192;9.790;2022-10-22T06:04:01;101080.69;;;17.43;100.00
51299;BME280;37382;45.192;9.790;2022-10-22T06:06:32;101088.00;;;17.50;100.00
51299;BME280;37382;45.192;9.790;2022-10-22T06:09:05;101106.53;;;17.54;100.00
51299;BME280;37382;45.192;9.790;2022-10-22T06:11:33;101083.91;;;17.40;100.00
51299;BME280;37382;45.192;9.790;2022-10-22T06:14:02;101082.88;;;17.65;100.00
51299;BME280;37382;45.192;9.790;2022-10-22T06:16:30;101085.38;;;17.55;100.00
51299;BME280;37382;45.192;9.790;2022-10-22T06:18:58;101090.19;;;17.71;100.00
51299;BME280;37382;45.192;9.790;2022-10-22T06:21:28;101082.66;;;17.67;100.00
51299;BME280;37382;45.192;9.790;2022-10-22T06:23:58;101091.59;;;17.62;100.00
51299;BME280;37382;45.192;9.790;2022-10-22T06:26:25;101101.28;;;17.65;100.00
51299;BME280;37382;45.192;9.790;2022-10-22T06:28:54;101103.13;;;17.71;100.00
51299;BME280;37382;45.192;9.790;2022-10-22T06:31:23;101105.91;;;17.94;100.00
51299;BME280;37382;45.192;9.790;2022-10-22T06:33:51;101106.34;;;17.79;100.00
51299;BME280;37382;45.192;9.790;2022-10-22T06:36:22;101110.44;;;17.89;100.00
51299;BME280;37382;45.192;9.790;2022-10-22T06:38:51;101121.84;;;17.92;100.00
51299;BME280;37382;45.192;9.790;2022-10-22T06:41:18;101124.66;;;17.86;100.00
51299;BME280;37382;45.192;9.790;2022-10-22T06:43:46;101126.50;;;17.92;100.00
51299;BME280;37382;45.192;9.790;2022-10-22T06:46:16;101120.75;;;17.93;100.00
51299;BME280;37382;45.192;9.790;2022-10-22T06:48:55;101126.88;;;17.95;100.00
51299;BME280;37382;45.192;9.790;2022-10-22T06:51:23;101125.78;;;18.08;100.00
51299;BME280;37382;45.192;9.790;2022-10-22T06:53:53;101131.19;;;18.15;100.00
51299;BME280;37382;45.192;9.790;2022-10-22T06:56:21;101131.06;;;18.22;100.00
51299;BME280;37382;45.192;9.790;2022-10-22T06:58:50;101145.44;;;18.12;100.00
51299;BME280;37382;45.192;9.790;2022-10-22T07:01:21;101150.94;;;18.12;100.00
51299;BME280;37382;45.192;9.790;2022-10-22T07:03:51;101151.56;;;18.26;100.00
51299;BME280;37382;45.192;9.790;2022-10-22T07:06:20;101151.88;;;18.18;100.00
51299;BME280;37382;45.192;9.790;2022-10-22T07:08:48;101158.00;;;18.31;100.00
51299;BME280;37382;45.192;9.790;2022-10-22T07:11:18;101159.69;;;18.33;100.00
51299;BME280;37382;45.192;9.790;2022-10-22T07:13:47;101170.00;;;18.49;100.00
51299;BME280;37382;45.192;9.790;2022-10-22T07:16:16;101172.25;;;18.64;100.00
51299;BME280;37382;45.192;9.790;2022-10-22T07:18:44;101176.06;;;18.75;100.00
51299;BME280;37382;45.192;9.790;2022-10-22T07:21:13;101183.00;;;18.77;100.00
51299;BME280;37382;45.192;9.790;2022-10-22T07:23:41;101173.94;;;18.89;100.00
51299;BME280;37382;45.192;9.790;2022-10-22T07:26:12;101173.75;;;19.07;100.00
51299;BME280;37382;45.192;9.790;2022-10-22T07:28:41;101174.53;;;19.31;100.00
51299;BME280;37382;45.192;9.790;2022-10-22T07:31:10;101187.03;;;19.22;100.00
51299;BME280;37382;45.192;9.790;2022-10-22T07:33:37;101197.88;;;19.41;100.00
51299;BME280;37382;45.192;9.790;2022-10-22T07:36:07;101197.22;;;19.50;100.00
51299;BME280;37382;45.192;9.790;2022-10-22T07:38:35;101213.28;;;19.53;100.00
51299;BME280;37382;45.192;9.790;2022-10-22T07:41:03;101210.84;;;19.69;100.00
51299;BME280;37382;45.192;9.790;2022-10-22T07:43:31;101213.13;;;19.72;100.00
51299;BME280;37382;45.192;9.790;2022-10-22T07:45:58;101217.19;;;19.81;100.00
51299;BME280;37382;45.192;9.790;2022-10-22T07:48:26;101216.88;;;19.95;100.00
51299;BME280;37382;45.192;9.790;2022-10-22T07:50:54;101214.31;;;19.93;100.00
51299;BME280;37382;45.192;9.790;2022-10-22T07:53:22;101212.06;;;19.90;100.00
51299;BME280;37382;45.192;9.790;2022-10-22T07:55:51;101219.16;;;20.15;100.00
51299;BME280;37382;45.192;9.790;2022-10-22T07:58:19;101230.53;;;20.35;100.00
51299;BME280;37382;45.192;9.790;2022-10-22T08:00:47;101227.25;;;20.21;100.00
51299;BME280;37382;45.192;9.790;2022-10-22T08:03:15;101220.28;;;20.19;100.00
51299;BME280;37382;45.192;9.790;2022-10-22T08:05:43;101226.34;;;20.33;100.00
51299;BME280;37382;45.192;9.790;2022-10-22T08:08:12;101233.72;;;20.27;100.00
51299;BME280;37382;45.192;9.790;2022-10-22T08:10:41;101235.53;;;20.21;100.00
51299;BME280;37382;45.192;9.790;2022-10-22T08:13:09;101243.56;;;20.06;100.00
51299;BME280;37382;45.192;9.790;2022-10-22T08:15:37;101240.63;;;20.13;100.00
51299;BME280;37382;45.192;9.790;2022-10-22T08:18:04;101237.03;;;20.46;100.00
51299;BME280;37382;45.192;9.790;2022-10-22T08:20:32;101235.53;;;20.55;100.00
51299;BME280;37382;45.192;9.790;2022-10-22T08:22:59;101233.53;;;20.68;100.00
51299;BME280;37382;45.192;9.790;2022-10-22T08:25:27;101232.72;;;20.67;100.00
51299;BME280;37382;45.192;9.790;2022-10-22T08:27:55;101230.03;;;20.72;100.00
51299;BME280;37382;45.192;9.790;2022-10-22T08:30:22;101223.81;;;21.04;100.00
51299;BME280;37382;45.192;9.790;2022-10-22T08:32:50;101229.53;;;20.97;100.00
51299;BME280;37382;45.192;9.790;2022-10-22T08:35:20;101242.56;;;20.97;100.00
51299;BME280;37382;45.192;9.790;2022-10-22T08:37:47;101237.72;;;21.09;100.00
51299;BME280;37382;45.192;9.790;2022-10-22T08:40:37;101246.19;;;21.64;100.00
51299;BME280;37382;45.192;9.790;2022-10-22T08:48:45;101243.81;;;21.50;100.00
51299;BME280;37382;45.192;9.790;2022-10-22T08:51:23;101241.16;;;21.61;100.00
51299;BME280;37382;45.192;9.790;2022-10-22T08:54:16;101234.38;;;21.74;100.00
51299;BME280;37382;45.192;9.790;2022-10-22T08:56:55;101243.34;;;21.86;100.00
51299;BME280;37382;45.192;9.790;2022-10-22T09:00:03;101254.31;;;22.03;100.00
51299;BME280;37382;45.192;9.790;2022-10-22T09:08:15;101271.56;;;21.83;100.00
51299;BME280;37382;45.192;9.790;2022-10-22T09:10:49;101276.38;;;21.04;100.00
51299;BME280;37382;45.192;9.790;2022-10-22T09:13:19;101284.56;;;21.55;100.00
51299;BME280;37382;45.192;9.790;2022-10-22T09:15:59;101283.16;;;22.02;100.00
51299;BME280;37382;45.192;9.790;2022-10-22T09:21:37;101285.53;;;21.93;100.00
51299;BME280;37382;45.192;9.790;2022-10-22T09:24:18;101288.19;;;22.32;100.00
51299;BME280;37382;45.192;9.790;2022-10-22T09:26:48;101290.78;;;21.67;100.00
51299;BME280;37382;45.192;9.790;2022-10-22T09:29:23;101291.72;;;21.34;100.00
51299;BME280;37382;45.192;9.790;2022-10-22T09:31:56;101294.66;;;21.66;100.00
51299;BME280;37382;45.192;9.790;2022-10-22T09:34:24;101287.44;;;22.20;100.00
51299;BME280;37382;45.192;9.790;2022-10-22T09:36:57;101287.16;;;21.89;100.00
51299;BME280;37382;45.192;9.790;2022-10-22T09:39:27;101287.94;;;21.40;100.00
51299;BME280;37382;45.192;9.790;2022-10-22T09:41:55;101280.16;;;22.09;100.00
51299;BME280;37382;45.192;9.790;2022-10-22T09:44:24;101285.56;;;22.53;100.00
51299;BME280;37382;45.192;9.790;2022-10-22T09:46:51;101290.03;;;22.54;100.00
51299;BME280;37382;45.192;9.790;2022-10-22T09:49:21;101295.81;;;21.71;100.00
51299;BME280;37382;45.192;9.790;2022-10-22T09:51:57;101282.00;;;22.30;100.00
51299;BME280;37382;45.192;9.790;2022-10-22T09:54:37;101282.25;;;22.24;100.00
51299;BME280;37382;45.192;9.790;2022-10-22T09:57:13;101283.00;;;21.64;100.00
51299;BME280;37382;45.192;9.790;2022-10-22T09:59:46;101289.84;;;21.57;100.00
51299;BME280;37382;45.192;9.790;2022-10-22T10:02:27;101289.13;;;22.48;100.00
51299;BME280;37382;45.192;9.790;2022-10-22T10:05:18;101281.31;;;22.13;100.00
51299;BME280;37382;45.192;9.790;2022-10-22T10:07:46;101279.50;;;21.74;100.00
51299;BME280;37382;45.192;9.790;2022-10-22T10:10:24;101289.34;;;21.87;100.00
51299;BME280;37382;45.192;9.790;2022-10-22T10:12:59;101285.91;;;22.62;100.00
51299;BME280;37382;45.192;9.790;2022-10-22T10:15:39;101295.00;;;21.97;100.00
51299;BME280;37382;45.192;9.790;2022-10-22T10:18:27;101311.63;;;21.97;100.00
51299;BME280;37382;45.192;9.790;2022-10-22T10:21:25;101306.28;;;22.18;100.00
51299;BME280;37382;45.192;9.790;2022-10-22T10:27:08;101321.16;;;22.61;100.00
51299;BME280;37382;45.192;9.790;2022-10-22T10:29:44;101330.66;;;21.89;100.00
51299;BME280;37382;45.192;9.790;2022-10-22T10:32:27;101332.13;;;22.24;100.00
51299;BME280;37382;45.192;9.790;2022-10-22T10:43:32;101321.19;;;22.12;100.00
51299;BME280;37382;45.192;9.790;2022-10-22T10:49:07;101321.22;;;22.39;100.00
51299;BME280;37382;45.192;9.790;2022-10-22T10:54:46;101313.78;;;22.45;100.00
51299;BME280;37382;45.192;9.790;2022-10-22T10:57:38;101316.69;;;22.60;100.00
51299;BME280;37382;45.192;9.790;2022-10-22T11:00:20;101324.31;;;22.80;100.00
51299;BME280;37382;45.192;9.790;2022-10-22T11:06:02;101323.06;;;22.98;100.00
51299;BME280;37382;45.192;9.790;2022-10-22T11:08:46;101316.16;;;22.63;100.00
51299;BME280;37382;45.192;9.790;2022-10-22T11:11:46;101319.53;;;23.56;100.00
51299;BME280;37382;45.192;9.790;2022-10-22T11:14:21;101326.91;;;22.92;100.00
51299;BME280;37382;45.192;9.790;2022-10-22T11:17:13;101315.03;;;23.44;100.00
51299;BME280;37382;45.192;9.790;2022-10-22T11:19:52;101314.19;;;22.59;100.00
51299;BME280;37382;45.192;9.790;2022-10-22T11:22:38;101325.97;;;23.14;100.00
51299;BME280;37382;45.192;9.790;2022-10-22T11:25:31;101337.56;;;23.48;100.00
51299;BME280;37382;45.192;9.790;2022-10-22T11:28:09;101336.91;;;23.31;100.00
51299;BME280;37382;45.192;9.790;2022-10-22T11:30:39;101342.19;;;22.95;100.00
51299;BME280;37382;45.192;9.790;2022-10-22T11:33:16;101342.88;;;22.42;100.00
51299;BME280;37382;45.192;9.790;2022-10-22T11:35:45;101329.53;;;22.39;100.00
51299;BME280;37382;45.192;9.790;2022-10-22T11:38:24;101334.94;;;22.56;100.00
51299;BME280;37382;45.192;9.790;2022-10-22T11:40:56;101331.06;;;22.95;100.00
51299;BME280;37382;45.192;9.790;2022-10-22T11:43:32;101334.28;;;22.44;100.00
51299;BME280;37382;45.192;9.790;2022-10-22T11:46:24;101336.09;;;22.06;100.00
51299;BME280;37382;45.192;9.790;2022-10-22T11:51:41;101337.84;;;22.17;100.00
51299;BME280;37382;45.192;9.790;2022-10-22T12:02:44;101333.34;;;22.11;100.00
51299;BME280;37382;45.192;9.790;2022-10-22T12:05:33;101314.25;;;22.36;100.00
51299;BME280;37382;45.192;9.790;2022-10-22T12:08:15;101318.22;;;22.46;100.00
51299;BME280;37382;45.192;9.790;2022-10-22T12:16:39;101313.66;;;22.07;100.00
51299;BME280;37382;45.192;9.790;2022-10-22T12:19:29;101311.94;;;22.28;100.00
51299;BME280;37382;45.192;9.790;2022-10-22T12:24:39;101311.44;;;22.31;100.00
51299;BME280;37382;45.192;9.790;2022-10-22T12:27:34;101317.09;;;21.92;100.00
51299;BME280;37382;45.192;9.790;2022-10-22T12:30:30;101311.44;;;22.31;100.00
51299;BME280;37382;45.192;9.790;2022-10-22T12:33:03;101308.94;;;22.08;100.00
51299;BME280;37382;45.192;9.790;2022-10-22T12:35:34;101312.38;;;22.20;100.00
51299;BME280;37382;45.192;9.790;2022-10-22T12:38:17;101313.88;;;22.28;100.00
51299;BME280;37382;45.192;9.790;2022-10-22T12:40:47;101316.84;;;22.48;100.00
51299;BME280;37382;45.192;9.790;2022-10-22T12:43:18;101316.66;;;22.92;100.00
51299;BME280;37382;45.192;9.790;2022-10-22T12:45:50;101318.66;;;23.02;100.00
51299;BME280;37382;45.192;9.790;2022-10-22T12:48:29;101325.44;;;22.47;100.00
51299;BME280;37382;45.192;9.790;2022-10-22T12:50:58;101328.44;;;21.91;100.00
51299;BME280;37382;45.192;9.790;2022-10-22T12:53:30;101328.25;;;21.97;100.00
51299;BME280;37382;45.192;9.790;2022-10-22T12:56:01;101327.41;;;21.97;100.00
51299;BME280;37382;45.192;9.790;2022-10-22T12:58:39;101334.78;;;22.13;100.00
51299;BME280;37382;45.192;9.790;2022-10-22T13:01:10;101326.25;;;22.20;100.00
51299;BME280;37382;45.192;9.790;2022-10-22T13:03:49;101321.69;;;22.63;100.00
51299;BME280;37382;45.192;9.790;2022-10-22T13:11:55;101322.06;;;23.09;100.00
51299;BME280;37382;45.192;9.790;2022-10-22T13:14:30;101324.38;;;23.28;100.00
51299;BME280;37382;45.192;9.790;2022-10-22T13:17:40;101325.91;;;23.56;100.00
51299;BME280;37382;45.192;9.790;2022-10-22T13:20:19;101314.78;;;24.92;100.00
51299;BME280;37382;45.192;9.790;2022-10-22T13:23:01;101304.69;;;28.35;100.00
51299;BME280;37382;45.192;9.790;2022-10-22T13:28:00;101304.53;;;30.04;82.81
51299;BME280;37382;45.192;9.790;2022-10-22T13:30:33;101308.09;;;29.68;82.20
51299;BME280;37382;45.192;9.790;2022-10-22T13:33:06;101323.88;;;26.09;100.00
51299;BME280;37382;45.192;9.790;2022-10-22T13:35:36;101323.94;;;25.08;100.00
51299;BME280;37382;45.192;9.790;2022-10-22T13:38:14;101323.66;;;25.14;100.00
51299;BME280;37382;45.192;9.790;2022-10-22T13:40:45;101325.66;;;25.79;100.00
51299;BME280;37382;45.192;9.790;2022-10-22T13:43:12;101317.50;;;25.28;100.00
51299;BME280;37382;45.192;9.790;2022-10-22T13:45:40;101324.41;;;26.11;100.00
51299;BME280;37382;45.192;9.790;2022-10-22T13:48:12;101299.72;;;30.18;92.13
51299;BME280;37382;45.192;9.790;2022-10-22T13:50:40;101302.28;;;30.74;79.25
51299;BME280;37382;45.192;9.790;2022-10-22T13:53:09;101305.66;;;31.16;71.88
51299;BME280;37382;45.192;9.790;2022-10-22T13:55:45;101290.41;;;31.08;72.21
51299;BME280;37382;45.192;9.790;2022-10-22T13:58:19;101313.09;;;29.71;74.58
51299;BME280;37382;45.192;9.790;2022-10-22T14:00:51;101323.91;;;28.23;80.85
51299;BME280;37382;45.192;9.790;2022-10-22T14:03:20;101323.28;;;27.15;89.48
51299;BME280;37382;45.192;9.790;2022-10-22T14:05:49;101325.91;;;26.38;98.59
51299;BME280;37382;45.192;9.790;2022-10-22T14:08:19;101321.53;;;25.71;100.00
51299;BME280;37382;45.192;9.790;2022-10-22T14:10:47;101319.66;;;25.51;100.00
51299;BME280;37382;45.192;9.790;2022-10-22T14:13:16;101321.97;;;25.24;100.00
51299;BME280;37382;45.192;9.790;2022-10-22T14:15:45;101324.53;;;24.79;100.00
51299;BME280;37382;45.192;9.790;2022-10-22T14:18:17;101329.81;;;24.55;100.00
51299;BME280;37382;45.192;9.790;2022-10-22T14:20:52;101331.66;;;24.03;100.00
51299;BME280;37382;45.192;9.790;2022-10-22T14:23:22;101335.06;;;24.41;100.00
51299;BME280;37382;45.192;9.790;2022-10-22T14:25:51;101336.16;;;24.34;100.00
51299;BME280;37382;45.192;9.790;2022-10-22T14:28:18;101324.50;;;24.48;100.00
51299;BME280;37382;45.192;9.790;2022-10-22T14:30:46;101328.41;;;24.52;100.00
51299;BME280;37382;45.192;9.790;2022-10-22T14:33:17;101332.88;;;24.63;100.00
51299;BME280;37382;45.192;9.790;2022-10-22T14:35:49;101337.84;;;24.51;100.00
51299;BME280;37382;45.192;9.790;2022-10-22T14:38:16;101340.09;;;24.33;100.00
51299;BME280;37382;45.192;9.790;2022-10-22T14:40:44;101341.97;;;24.18;100.00
51299;BME280;37382;45.192;9.790;2022-10-22T14:43:30;101345.91;;;24.32;100.00
51299;BME280;37382;45.192;9.790;2022-10-22T14:45:57;101349.00;;;24.46;100.00
51299;BME280;37382;45.192;9.790;2022-10-22T14:48:24;101350.94;;;24.35;100.00
51299;BME280;37382;45.192;9.790;2022-10-22T14:50:53;101342.56;;;24.20;100.00
51299;BME280;37382;45.192;9.790;2022-10-22T14:53:20;101335.25;;;23.88;100.00
51299;BME280;37382;45.192;9.790;2022-10-22T14:55:47;101331.97;;;23.43;100.00
51299;BME280;37382;45.192;9.790;2022-10-22T14:58:17;101333.91;;;23.00;100.00
51299;BME280;37382;45.192;9.790;2022-10-22T15:00:44;101333.22;;;23.20;100.00
51299;BME280;37382;45.192;9.790;2022-10-22T15:03:12;101335.88;;;23.04;100.00
51299;BME280;37382;45.192;9.790;2022-10-22T15:05:41;101338.16;;;23.13;100.00
51299;BME280;37382;45.192;9.790;2022-10-22T15:08:12;101344.00;;;23.69;100.00
51299;BME280;37382;45.192;9.790;2022-10-22T15:10:40;101341.91;;;23.87;100.00
51299;BME280;37382;45.192;9.790;2022-10-22T15:13:08;101345.91;;;24.42;100.00
51299;BME280;37382;45.192;9.790;2022-10-22T15:15:39;101340.34;;;24.42;100.00
51299;BME280;37382;45.192;9.790;2022-10-22T15:18:06;101338.69;;;24.26;100.00
51299;BME280;37382;45.192;9.790;2022-10-22T15:20:34;101342.84;;;24.33;100.00
51299;BME280;37382;45.192;9.790;2022-10-22T15:23:01;101340.81;;;23.35;100.00
51299;BME280;37382;45.192;9.790;2022-10-22T15:25:29;101340.81;;;22.97;100.00
51299;BME280;37382;45.192;9.790;2022-10-22T15:27:57;101340.72;;;22.49;100.00
51299;BME280;37382;45.192;9.790;2022-10-22T15:30:33;101353.00;;;22.59;100.00
51299;BME280;37382;45.192;9.790;2022-10-22T15:33:01;101356.81;;;22.52;100.00
51299;BME280;37382;45.192;9.790;2022-10-22T15:35:28;101351.97;;;22.37;100.00
51299;BME280;37382;45.192;9.790;2022-10-22T15:37:55;101352.22;;;22.36;100.00
51299;BME280;37382;45.192;9.790;2022-10-22T15:40:23;101353.75;;;21.99;100.00
51299;BME280;37382;45.192;9.790;2022-10-22T15:42:50;101345.66;;;21.71;100.00
51299;BME280;37382;45.192;9.790;2022-10-22T15:45:18;101348.63;;;21.64;100.00
51299;BME280;37382;45.192;9.790;2022-10-22T15:47:47;101360.66;;;21.53;100.00
51299;BME280;37382;45.192;9.790;2022-10-22T15:50:16;101363.31;;;21.47;100.00
51299;BME280;37382;45.192;9.790;2022-10-22T15:52:43;101356.97;;;21.47;100.00
51299;BME280;37382;45.192;9.790;2022-10-22T15:55:10;101371.16;;;21.50;100.00
51299;BME280;37382;45.192;9.790;2022-10-22T15:57:43;101372.41;;;21.43;100.00
51299;BME280;37382;45.192;9.790;2022-10-22T16:00:11;101372.72;;;21.46;100.00
51299;BME280;37382;45.192;9.790;2022-10-22T16:02:39;101380.13;;;21.24;100.00
51299;BME280;37382;45.192;9.790;2022-10-22T16:05:06;101375.44;;;21.24;100.00
51299;BME280;37382;45.192;9.790;2022-10-22T16:07:33;101372.72;;;21.07;100.00
51299;BME280;37382;45.192;9.790;2022-10-22T16:10:01;101383.69;;;21.02;100.00
51299;BME280;37382;45.192;9.790;2022-10-22T16:12:28;101383.34;;;20.99;100.00
51299;BME280;37382;45.192;9.790;2022-10-22T16:14:55;101381.00;;;20.90;100.00
51299;BME280;37382;45.192;9.790;2022-10-22T16:17:23;101391.56;;;20.93;100.00
51299;BME280;37382;45.192;9.790;2022-10-22T16:19:50;101392.47;;;20.99;100.00
51299;BME280;37382;45.192;9.790;2022-10-22T16:22:18;101386.94;;;20.82;100.00
51299;BME280;37382;45.192;9.790;2022-10-22T16:24:46;101393.31;;;20.83;100.00
51299;BME280;37382;45.192;9.790;2022-10-22T16:27:13;101396.19;;;20.71;100.00
51299;BME280;37382;45.192;9.790;2022-10-22T16:29:41;101397.25;;;20.70;100.00
51299;BME280;37382;45.192;9.790;2022-10-22T16:32:08;101397.50;;;20.68;100.00
51299;BME280;37382;45.192;9.790;2022-10-22T16:34:36;101403.97;;;20.74;100.00
51299;BME280;37382;45.192;9.790;2022-10-22T16:37:03;101399.78;;;20.59;100.00
51299;BME280;37382;45.192;9.790;2022-10-22T16:39:36;101404.50;;;20.59;100.00
51299;BME280;37382;45.192;9.790;2022-10-22T16:42:04;101395.09;;;20.60;100.00
51299;BME280;37382;45.192;9.790;2022-10-22T16:44:32;101395.56;;;20.69;100.00
51299;BME280;37382;45.192;9.790;2022-10-22T16:47:00;101391.91;;;20.51;100.00
51299;BME280;37382;45.192;9.790;2022-10-22T16:49:27;101408.75;;;20.50;100.00
51299;BME280;37382;45.192;9.790;2022-10-22T16:51:55;101404.34;;;20.37;100.00
51299;BME280;37382;45.192;9.790;2022-10-22T16:54:23;101410.38;;;20.34;100.00
51299;BME280;37382;45.192;9.790;2022-10-22T16:56:50;101410.97;;;20.36;100.00
51299;BME280;37382;45.192;9.790;2022-10-22T16:59:18;101423.94;;;20.35;100.00
51299;BME280;37382;45.192;9.790;2022-10-22T17:01:45;101425.88;;;20.35;100.00
51299;BME280;37382;45.192;9.790;2022-10-22T17:04:13;101429.50;;;20.23;100.00
51299;BME280;37382;45.192;9.790;2022-10-22T17:06:43;101425.59;;;20.07;100.00
51299;BME280;37382;45.192;9.790;2022-10-22T17:09:12;101429.31;;;20.13;100.00
51299;BME280;37382;45.192;9.790;2022-10-22T17:11:39;101431.38;;;20.06;100.00
51299;BME280;37382;45.192;9.790;2022-10-22T17:14:10;101438.09;;;20.10;100.00
51299;BME280;37382;45.192;9.790;2022-10-22T17:16:37;101448.59;;;19.96;100.00
51299;BME280;37382;45.192;9.790;2022-10-22T17:19:05;101451.03;;;20.21;100.00
51299;BME280;37382;45.192;9.790;2022-10-22T17:21:32;101458.34;;;20.16;100.00
51299;BME280;37382;45.192;9.790;2022-10-22T17:24:00;101459.97;;;20.00;100.00
51299;BME280;37382;45.192;9.790;2022-10-22T17:26:27;101461.19;;;19.92;100.00
51299;BME280;37382;45.192;9.790;2022-10-22T17:28:55;101466.00;;;19.85;100.00
51299;BME280;37382;45.192;9.790;2022-10-22T17:31:31;101465.50;;;19.88;100.00
51299;BME280;37382;45.192;9.790;2022-10-22T17:33:59;101466.34;;;19.77;100.00
51299;BME280;37382;45.192;9.790;2022-10-22T17:36:28;101473.66;;;19.71;100.00
51299;BME280;37382;45.192;9.790;2022-10-22T17:39:04;101479.44;;;19.69;100.00
51299;BME280;37382;45.192;9.790;2022-10-22T17:41:34;101487.97;;;19.80;100.00
51299;BME280;37382;45.192;9.790;2022-10-22T17:44:04;101491.91;;;19.84;100.00
51299;BME280;37382;45.192;9.790;2022-10-22T17:46:32;101489.63;;;19.69;100.00
51299;BME280;37382;45.192;9.790;2022-10-22T17:49:15;101486.00;;;19.68;100.00
51299;BME280;37382;45.192;9.790;2022-10-22T17:51:43;101492.88;;;19.66;100.00
51299;BME280;37382;45.192;9.790;2022-10-22T17:54:11;101492.16;;;19.70;100.00
51299;BME280;37382;45.192;9.790;2022-10-22T17:56:39;101493.81;;;19.71;100.00
51299;BME280;37382;45.192;9.790;2022-10-22T17:59:08;101495.75;;;19.71;100.00
51299;BME280;37382;45.192;9.790;2022-10-22T18:01:38;101507.31;;;19.80;100.00
51299;BME280;37382;45.192;9.790;2022-10-22T18:04:16;101506.19;;;19.81;100.00
51299;BME280;37382;45.192;9.790;2022-10-22T18:06:45;101511.88;;;19.86;100.00
51299;BME280;37382;45.192;9.790;2022-10-22T18:09:16;101506.69;;;19.89;100.00
51299;BME280;37382;45.192;9.790;2022-10-22T18:11:48;101510.75;;;19.87;100.00
51299;BME280;37382;45.192;9.790;2022-10-22T18:14:17;101506.09;;;19.87;100.00
51299;BME280;37382;45.192;9.790;2022-10-22T18:16:46;101508.72;;;19.94;100.00
51299;BME280;37382;45.192;9.790;2022-10-22T18:19:16;101515.31;;;19.93;100.00